sensor_id;sensor_type;location;lat;lon;timestamp;P1;durP1;ratioP1;P2;durP2;ratioP2
2898;SDS011;1459;50.864;6.438;2022-12-18T00:01:00;26.20;;;15.90;;
2898;SDS011;1459;50.864;6.438;2022-12-18T00:03:32;24.67;;;15.10;;
2898;SDS011;1459;50.864;6.438;2022-12-18T00:05:59;25.45;;;14.80;;
2898;SDS011;1459;50.864;6.438;2022-12-18T00:08:26;28.10;;;13.93;;
2898;SDS011;1459;50.864;6.438;2022-12-18T00:10:53;19.48;;;14.63;;
2898;SDS011;1459;50.864;6.438;2022-12-18T00:13:21;28.10;;;15.10;;
2898;SDS011;1459;50.864;6.438;2022-12-18T00:15:49;17.02;;;11.00;;
2898;SDS011;1459;50.864;6.438;2022-12-18T00:18:16;22.05;;;14.25;;
2898;SDS011;1459;50.864;6.438;2022-12-18T00:20:44;26.75;;;13.55;;
2898;SDS011;1459;50.864;6.438;2022-12-18T00:23:11;32.33;;;15.65;;
2898;SDS011;1459;50.864;6.438;2022-12-18T00:25:38;26.88;;;15.93;;
2898;SDS011;1459;50.864;6.438;2022-12-18T00:28:05;28.52;;;16.05;;
2898;SDS011;1459;50.864;6.438;2022-12-18T00:30:32;28.48;;;16.92;;
2898;SDS011;1459;50.864;6.438;2022-12-18T00:32:59;25.80;;;15.82;;
2898;SDS011;1459;50.864;6.438;2022-12-18T00:35:26;26.13;;;15.23;;
2898;SDS011;1459;50.864;6.438;2022-12-18T00:37:54;24.73;;;14.50;;
2898;SDS011;1459;50.864;6.438;2022-12-18T00:40:21;31.60;;;14.05;;
2898;SDS011;1459;50.864;6.438;2022-12-18T00:42:48;28.52;;;15.93;;
2898;SDS011;1459;50.864;6.438;2022-12-18T00:45:20;21.00;;;14.38;;
2898;SDS011;1459;50.864;6.438;2022-12-18T00:47:47;22.95;;;15.00;;
2898;SDS011;1459;50.864;6.438;2022-12-18T00:50:14;23.00;;;13.23;;
2898;SDS011;1459;50.864;6.438;2022-12-18T00:52:42;24.25;;;15.85;;
2898;SDS011;1459;50.864;6.438;2022-12-18T00:55:13;30.05;;;13.90;;
2898;SDS011;1459;50.864;6.438;2022-12-18T00:57:40;18.92;;;12.45;;
2898;SDS011;1459;50.864;6.438;2022-12-18T01:00:08;21.90;;;13.88;;
2898;SDS011;1459;50.864;6.438;2022-12-18T01:02:37;30.67;;;13.80;;
2898;SDS011;1459;50.864;6.438;2022-12-18T01:05:04;34.50;;;15.23;;
2898;SDS011;1459;50.864;6.438;2022-12-18T01:07:32;29.80;;;13.68;;
2898;SDS011;1459;50.864;6.438;2022-12-18T01:09:59;37.08;;;14.15;;
2898;SDS011;1459;50.864;6.438;2022-12-18T01:12:29;29.00;;;16.38;;
2898;SDS011;1459;50.864;6.438;2022-12-18T01:14:56;26.50;;;13.43;;
2898;SDS011;1459;50.864;6.438;2022-12-18T01:17:23;23.73;;;14.05;;
2898;SDS011;1459;50.864;6.438;2022-12-18T01:19:50;24.95;;;13.75;;
2898;SDS011;1459;50.864;6.438;2022-12-18T01:22:17;22.00;;;13.90;;
2898;SDS011;1459;50.864;6.438;2022-12-18T01:24:44;21.67;;;12.18;;
2898;SDS011;1459;50.864;6.438;2022-12-18T01:27:11;26.08;;;11.93;;
2898;SDS011;1459;50.864;6.438;2022-12-18T01:29:39;23.45;;;12.20;;
2898;SDS011;1459;50.864;6.438;2022-12-18T01:32:06;22.17;;;12.77;;
2898;SDS011;1459;50.864;6.438;2022-12-18T01:34:34;18.80;;;12.48;;
2898;SDS011;1459;50.864;6.438;2022-12-18T01:37:02;23.38;;;13.05;;
2898;SDS011;1459;50.864;6.438;2022-12-18T01:39:29;21.83;;;13.30;;
2898;SDS011;1459;50.864;6.438;2022-12-18T01:41:58;21.10;;;11.23;;
2898;SDS011;1459;50.864;6.438;2022-12-18T01:47:26;20.00;;;12.25;;
2898;SDS011;1459;50.864;6.438;2022-12-18T01:49:57;17.27;;;12.15;;
2898;SDS011;1459;50.864;6.438;2022-12-18T01:52:26;19.60;;;12.45;;
2898;SDS011;1459;50.864;6.438;2022-12-18T01:54:57;19.05;;;12.43;;
2898;SDS011;1459;50.864;6.438;2022-12-18T01:57:25;22.45;;;12.90;;
2898;SDS011;1459;50.864;6.438;2022-12-18T01:59:53;17.70;;;10.80;;
2898;SDS011;1459;50.864;6.438;2022-12-18T02:02:26;16.90;;;10.07;;
2898;SDS011;1459;50.864;6.438;2022-12-18T02:04:54;13.50;;;8.85;;
2898;SDS011;1459;50.864;6.438;2022-12-18T02:07:23;17.23;;;8.65;;
2898;SDS011;1459;50.864;6.438;2022-12-18T02:09:59;19.52;;;11.20;;
2898;SDS011;1459;50.864;6.438;2022-12-18T02:12:30;17.77;;;11.10;;
2898;SDS011;1459;50.864;6.438;2022-12-18T02:15:07;18.70;;;10.10;;
2898;SDS011;1459;50.864;6.438;2022-12-18T02:17:40;25.73;;;12.77;;
2898;SDS011;1459;50.864;6.438;2022-12-18T02:20:12;17.80;;;11.00;;
2898;SDS011;1459;50.864;6.438;2022-12-18T02:22:47;17.92;;;10.45;;
2898;SDS011;1459;50.864;6.438;2022-12-18T02:25:29;17.05;;;9.60;;
2898;SDS011;1459;50.864;6.438;2022-12-18T02:28:16;14.98;;;9.77;;
2898;SDS011;1459;50.864;6.438;2022-12-18T02:30:47;17.35;;;10.77;;
2898;SDS011;1459;50.864;6.438;2022-12-18T02:33:16;17.23;;;10.32;;
2898;SDS011;1459;50.864;6.438;2022-12-18T02:35:45;20.55;;;11.68;;
2898;SDS011;1459;50.864;6.438;2022-12-18T02:38:14;14.98;;;9.50;;
2898;SDS011;1459;50.864;6.438;2022-12-18T02:40:43;22.10;;;12.77;;
2898;SDS011;1459;50.864;6.438;2022-12-18T02:43:12;18.40;;;10.95;;
2898;SDS011;1459;50.864;6.438;2022-12-18T02:45:47;22.52;;;11.98;;
2898;SDS011;1459;50.864;6.438;2022-12-18T02:48:17;16.10;;;10.98;;
2898;SDS011;1459;50.864;6.438;2022-12-18T02:50:48;22.67;;;10.95;;
2898;SDS011;1459;50.864;6.438;2022-12-18T02:53:24;20.05;;;11.02;;
2898;SDS011;1459;50.864;6.438;2022-12-18T02:55:58;23.23;;;13.02;;
2898;SDS011;1459;50.864;6.438;2022-12-18T02:58:30;17.70;;;11.35;;
2898;SDS011;1459;50.864;6.438;2022-12-18T03:01:09;18.35;;;10.70;;
2898;SDS011;1459;50.864;6.438;2022-12-18T03:03:41;19.23;;;11.55;;
2898;SDS011;1459;50.864;6.438;2022-12-18T03:06:15;19.27;;;11.95;;
2898;SDS011;1459;50.864;6.438;2022-12-18T03:08:48;16.27;;;11.85;;
2898;SDS011;1459;50.864;6.438;2022-12-18T03:11:17;23.73;;;12.27;;
2898;SDS011;1459;50.864;6.438;2022-12-18T03:14:05;18.80;;;12.13;;
2898;SDS011;1459;50.864;6.438;2022-12-18T03:16:35;14.65;;;10.20;;
2898;SDS011;1459;50.864;6.438;2022-12-18T03:19:03;19.98;;;12.43;;
2898;SDS011;1459;50.864;6.438;2022-12-18T03:21:37;24.77;;;11.85;;
2898;SDS011;1459;50.864;6.438;2022-12-18T03:24:09;19.05;;;13.70;;
2898;SDS011;1459;50.864;6.438;2022-12-18T03:26:37;24.08;;;11.40;;
2898;SDS011;1459;50.864;6.438;2022-12-18T03:29:12;20.55;;;12.45;;
2898;SDS011;1459;50.864;6.438;2022-12-18T03:31:45;25.65;;;13.80;;
2898;SDS011;1459;50.864;6.438;2022-12-18T03:34:16;19.48;;;12.20;;
2898;SDS011;1459;50.864;6.438;2022-12-18T03:36:49;23.40;;;13.02;;
2898;SDS011;1459;50.864;6.438;2022-12-18T03:39:16;21.45;;;13.00;;
2898;SDS011;1459;50.864;6.438;2022-12-18T03:41:43;25.65;;;14.57;;
2898;SDS011;1459;50.864;6.438;2022-12-18T03:44:17;21.35;;;13.95;;
2898;SDS011;1459;50.864;6.438;2022-12-18T03:46:54;22.10;;;13.73;;
2898;SDS011;1459;50.864;6.438;2022-12-18T03:49:32;19.85;;;13.23;;
2898;SDS011;1459;50.864;6.438;2022-12-18T03:52:03;30.02;;;13.98;;
2898;SDS011;1459;50.864;6.438;2022-12-18T03:54:33;26.00;;;13.77;;
2898;SDS011;1459;50.864;6.438;2022-12-18T03:57:05;23.92;;;14.80;;
2898;SDS011;1459;50.864;6.438;2022-12-18T03:59:36;25.40;;;13.23;;
2898;SDS011;1459;50.864;6.438;2022-12-18T04:02:06;23.40;;;13.25;;
2898;SDS011;1459;50.864;6.438;2022-12-18T04:04:35;20.70;;;13.68;;
2898;SDS011;1459;50.864;6.438;2022-12-18T04:07:03;26.67;;;13.00;;
2898;SDS011;1459;50.864;6.438;2022-12-18T04:09:31;20.83;;;12.05;;
2898;SDS011;1459;50.864;6.438;2022-12-18T04:11:59;25.65;;;15.80;;
2898;SDS011;1459;50.864;6.438;2022-12-18T04:14:26;21.52;;;13.32;;
2898;SDS011;1459;50.864;6.438;2022-12-18T04:16:54;21.40;;;13.60;;
2898;SDS011;1459;50.864;6.438;2022-12-18T04:19:22;27.27;;;13.65;;
2898;SDS011;1459;50.864;6.438;2022-12-18T04:21:49;21.17;;;12.27;;
2898;SDS011;1459;50.864;6.438;2022-12-18T04:24:16;20.30;;;12.43;;
2898;SDS011;1459;50.864;6.438;2022-12-18T04:26:43;23.17;;;14.18;;
2898;SDS011;1459;50.864;6.438;2022-12-18T04:29:10;22.50;;;13.65;;
2898;SDS011;1459;50.864;6.438;2022-12-18T04:31:37;24.98;;;13.40;;
2898;SDS011;1459;50.864;6.438;2022-12-18T04:34:04;28.40;;;15.27;;
2898;SDS011;1459;50.864;6.438;2022-12-18T04:36:32;23.42;;;12.05;;
2898;SDS011;1459;50.864;6.438;2022-12-18T04:38:59;25.65;;;12.38;;
2898;SDS011;1459;50.864;6.438;2022-12-18T04:41:26;22.08;;;13.25;;
2898;SDS011;1459;50.864;6.438;2022-12-18T04:43:53;24.73;;;13.95;;
2898;SDS011;1459;50.864;6.438;2022-12-18T04:46:20;24.40;;;13.32;;
2898;SDS011;1459;50.864;6.438;2022-12-18T04:48:47;27.08;;;14.55;;
2898;SDS011;1459;50.864;6.438;2022-12-18T04:51:14;19.25;;;12.20;;
2898;SDS011;1459;50.864;6.438;2022-12-18T04:53:43;26.48;;;15.48;;
2898;SDS011;1459;50.864;6.438;2022-12-18T04:56:10;27.52;;;13.70;;
2898;SDS011;1459;50.864;6.438;2022-12-18T04:58:39;23.98;;;13.15;;
2898;SDS011;1459;50.864;6.438;2022-12-18T05:01:07;22.55;;;13.52;;
2898;SDS011;1459;50.864;6.438;2022-12-18T05:03:35;17.45;;;12.25;;
2898;SDS011;1459;50.864;6.438;2022-12-18T05:06:03;20.35;;;14.85;;
2898;SDS011;1459;50.864;6.438;2022-12-18T05:08:30;21.77;;;14.95;;
2898;SDS011;1459;50.864;6.438;2022-12-18T05:10:59;21.25;;;12.98;;
2898;SDS011;1459;50.864;6.438;2022-12-18T05:13:27;20.70;;;11.93;;
2898;SDS011;1459;50.864;6.438;2022-12-18T05:15:54;18.23;;;13.30;;
2898;SDS011;1459;50.864;6.438;2022-12-18T05:18:22;19.75;;;13.35;;
2898;SDS011;1459;50.864;6.438;2022-12-18T05:20:49;19.60;;;9.27;;
2898;SDS011;1459;50.864;6.438;2022-12-18T05:23:17;25.77;;;12.27;;
2898;SDS011;1459;50.864;6.438;2022-12-18T05:25:46;25.95;;;14.30;;
2898;SDS011;1459;50.864;6.438;2022-12-18T05:28:17;22.85;;;13.45;;
2898;SDS011;1459;50.864;6.438;2022-12-18T05:30:47;20.13;;;13.80;;
2898;SDS011;1459;50.864;6.438;2022-12-18T05:33:15;23.58;;;14.20;;
2898;SDS011;1459;50.864;6.438;2022-12-18T05:35:42;24.50;;;12.95;;
2898;SDS011;1459;50.864;6.438;2022-12-18T05:38:09;18.15;;;12.18;;
2898;SDS011;1459;50.864;6.438;2022-12-18T05:40:41;21.05;;;12.18;;
2898;SDS011;1459;50.864;6.438;2022-12-18T05:43:08;21.17;;;14.18;;
2898;SDS011;1459;50.864;6.438;2022-12-18T05:45:38;20.17;;;12.43;;
2898;SDS011;1459;50.864;6.438;2022-12-18T05:48:05;24.60;;;14.55;;
2898;SDS011;1459;50.864;6.438;2022-12-18T05:50:33;23.30;;;13.98;;
2898;SDS011;1459;50.864;6.438;2022-12-18T05:53:01;21.60;;;13.00;;
2898;SDS011;1459;50.864;6.438;2022-12-18T05:55:42;20.58;;;13.40;;
2898;SDS011;1459;50.864;6.438;2022-12-18T05:58:11;26.48;;;14.13;;
2898;SDS011;1459;50.864;6.438;2022-12-18T06:00:41;29.27;;;14.27;;
2898;SDS011;1459;50.864;6.438;2022-12-18T06:03:10;27.42;;;13.95;;
2898;SDS011;1459;50.864;6.438;2022-12-18T06:05:38;21.48;;;14.55;;
2898;SDS011;1459;50.864;6.438;2022-12-18T06:08:06;28.80;;;15.40;;
2898;SDS011;1459;50.864;6.438;2022-12-18T06:10:34;20.67;;;12.40;;
2898;SDS011;1459;50.864;6.438;2022-12-18T06:13:01;24.27;;;14.13;;
2898;SDS011;1459;50.864;6.438;2022-12-18T06:15:28;28.70;;;14.63;;
2898;SDS011;1459;50.864;6.438;2022-12-18T06:17:57;20.85;;;12.60;;
2898;SDS011;1459;50.864;6.438;2022-12-18T06:20:23;22.65;;;13.85;;
2898;SDS011;1459;50.864;6.438;2022-12-18T06:22:50;30.55;;;14.15;;
2898;SDS011;1459;50.864;6.438;2022-12-18T06:25:17;24.08;;;15.02;;
2898;SDS011;1459;50.864;6.438;2022-12-18T06:27:46;21.75;;;12.18;;
2898;SDS011;1459;50.864;6.438;2022-12-18T06:30:14;27.25;;;14.32;;
2898;SDS011;1459;50.864;6.438;2022-12-18T06:32:41;21.95;;;13.82;;
2898;SDS011;1459;50.864;6.438;2022-12-18T06:35:09;22.77;;;14.30;;
2898;SDS011;1459;50.864;6.438;2022-12-18T06:37:36;26.73;;;14.82;;
2898;SDS011;1459;50.864;6.438;2022-12-18T06:40:04;21.20;;;13.57;;
2898;SDS011;1459;50.864;6.438;2022-12-18T06:42:32;30.30;;;15.00;;
2898;SDS011;1459;50.864;6.438;2022-12-18T06:44:59;29.98;;;15.27;;
2898;SDS011;1459;50.864;6.438;2022-12-18T06:47:26;23.38;;;13.90;;
2898;SDS011;1459;50.864;6.438;2022-12-18T06:49:53;20.42;;;14.57;;
2898;SDS011;1459;50.864;6.438;2022-12-18T06:52:21;22.10;;;13.35;;
2898;SDS011;1459;50.864;6.438;2022-12-18T06:54:48;23.40;;;14.30;;
2898;SDS011;1459;50.864;6.438;2022-12-18T06:57:15;23.38;;;13.98;;
2898;SDS011;1459;50.864;6.438;2022-12-18T06:59:42;24.15;;;13.90;;
2898;SDS011;1459;50.864;6.438;2022-12-18T07:02:10;30.35;;;16.33;;
2898;SDS011;1459;50.864;6.438;2022-12-18T07:04:39;25.75;;;15.18;;
2898;SDS011;1459;50.864;6.438;2022-12-18T07:07:07;23.55;;;16.63;;
2898;SDS011;1459;50.864;6.438;2022-12-18T07:09:36;23.33;;;14.70;;
2898;SDS011;1459;50.864;6.438;2022-12-18T07:12:03;17.92;;;12.82;;
2898;SDS011;1459;50.864;6.438;2022-12-18T07:14:31;21.38;;;14.75;;
2898;SDS011;1459;50.864;6.438;2022-12-18T07:16:58;20.33;;;13.68;;
2898;SDS011;1459;50.864;6.438;2022-12-18T07:19:25;22.20;;;15.10;;
2898;SDS011;1459;50.864;6.438;2022-12-18T07:21:52;25.08;;;14.57;;
2898;SDS011;1459;50.864;6.438;2022-12-18T07:24:19;27.33;;;15.45;;
2898;SDS011;1459;50.864;6.438;2022-12-18T07:26:48;30.10;;;17.70;;
2898;SDS011;1459;50.864;6.438;2022-12-18T07:29:15;25.33;;;12.95;;
2898;SDS011;1459;50.864;6.438;2022-12-18T07:31:45;21.02;;;13.55;;
2898;SDS011;1459;50.864;6.438;2022-12-18T07:34:12;23.70;;;13.38;;
2898;SDS011;1459;50.864;6.438;2022-12-18T07:36:40;27.48;;;17.45;;
2898;SDS011;1459;50.864;6.438;2022-12-18T07:39:07;22.35;;;15.18;;
2898;SDS011;1459;50.864;6.438;2022-12-18T07:41:34;30.60;;;16.10;;
2898;SDS011;1459;50.864;6.438;2022-12-18T07:44:03;19.65;;;13.70;;
2898;SDS011;1459;50.864;6.438;2022-12-18T07:46:30;18.35;;;13.02;;
2898;SDS011;1459;50.864;6.438;2022-12-18T07:48:57;23.33;;;15.63;;
2898;SDS011;1459;50.864;6.438;2022-12-18T07:51:25;22.67;;;12.60;;
2898;SDS011;1459;50.864;6.438;2022-12-18T07:53:52;26.38;;;15.88;;
2898;SDS011;1459;50.864;6.438;2022-12-18T07:56:19;24.48;;;14.98;;
2898;SDS011;1459;50.864;6.438;2022-12-18T07:58:46;26.63;;;17.35;;
2898;SDS011;1459;50.864;6.438;2022-12-18T08:01:15;13.38;;;9.95;;
2898;SDS011;1459;50.864;6.438;2022-12-18T08:03:42;34.17;;;15.07;;
2898;SDS011;1459;50.864;6.438;2022-12-18T08:06:09;26.35;;;14.85;;
2898;SDS011;1459;50.864;6.438;2022-12-18T08:08:36;16.27;;;10.75;;
2898;SDS011;1459;50.864;6.438;2022-12-18T08:11:05;28.60;;;13.88;;
2898;SDS011;1459;50.864;6.438;2022-12-18T08:13:32;26.20;;;15.38;;
2898;SDS011;1459;50.864;6.438;2022-12-18T08:15:59;28.15;;;13.65;;
2898;SDS011;1459;50.864;6.438;2022-12-18T08:18:29;19.60;;;12.23;;
2898;SDS011;1459;50.864;6.438;2022-12-18T08:21:02;31.38;;;16.63;;
2898;SDS011;1459;50.864;6.438;2022-12-18T08:23:34;27.00;;;16.42;;
2898;SDS011;1459;50.864;6.438;2022-12-18T08:26:01;20.25;;;14.50;;
2898;SDS011;1459;50.864;6.438;2022-12-18T08:28:30;26.73;;;16.15;;
2898;SDS011;1459;50.864;6.438;2022-12-18T08:30:57;22.00;;;15.45;;
2898;SDS011;1459;50.864;6.438;2022-12-18T08:33:24;22.00;;;15.35;;
2898;SDS011;1459;50.864;6.438;2022-12-18T08:35:53;24.65;;;14.00;;
2898;SDS011;1459;50.864;6.438;2022-12-18T08:38:20;22.92;;;14.50;;
2898;SDS011;1459;50.864;6.438;2022-12-18T08:40:48;31.90;;;13.63;;
2898;SDS011;1459;50.864;6.438;2022-12-18T08:43:15;16.15;;;12.15;;
2898;SDS011;1459;50.864;6.438;2022-12-18T08:45:56;24.13;;;15.20;;
2898;SDS011;1459;50.864;6.438;2022-12-18T08:48:23;22.60;;;15.35;;
2898;SDS011;1459;50.864;6.438;2022-12-18T08:50:57;21.08;;;15.20;;
2898;SDS011;1459;50.864;6.438;2022-12-18T08:53:25;22.30;;;14.48;;
2898;SDS011;1459;50.864;6.438;2022-12-18T08:55:53;23.67;;;14.55;;
2898;SDS011;1459;50.864;6.438;2022-12-18T08:58:20;16.35;;;13.77;;
2898;SDS011;1459;50.864;6.438;2022-12-18T09:00:47;25.00;;;15.50;;
2898;SDS011;1459;50.864;6.438;2022-12-18T09:03:15;23.42;;;14.27;;
2898;SDS011;1459;50.864;6.438;2022-12-18T09:05:43;27.50;;;16.38;;
2898;SDS011;1459;50.864;6.438;2022-12-18T09:08:13;31.60;;;17.30;;
2898;SDS011;1459;50.864;6.438;2022-12-18T09:10:41;23.13;;;14.10;;
2898;SDS011;1459;50.864;6.438;2022-12-18T09:13:09;25.77;;;15.98;;
2898;SDS011;1459;50.864;6.438;2022-12-18T09:15:39;27.88;;;17.58;;
2898;SDS011;1459;50.864;6.438;2022-12-18T09:18:08;25.67;;;13.98;;
2898;SDS011;1459;50.864;6.438;2022-12-18T09:20:35;23.85;;;16.25;;
2898;SDS011;1459;50.864;6.438;2022-12-18T09:23:02;25.58;;;15.35;;
2898;SDS011;1459;50.864;6.438;2022-12-18T09:25:31;31.23;;;16.20;;
2898;SDS011;1459;50.864;6.438;2022-12-18T09:28:00;24.40;;;15.35;;
2898;SDS011;1459;50.864;6.438;2022-12-18T09:30:28;24.08;;;16.25;;
2898;SDS011;1459;50.864;6.438;2022-12-18T09:32:55;20.80;;;15.02;;
2898;SDS011;1459;50.864;6.438;2022-12-18T09:35:22;25.70;;;16.45;;
2898;SDS011;1459;50.864;6.438;2022-12-18T09:37:49;26.80;;;15.30;;
2898;SDS011;1459;50.864;6.438;2022-12-18T09:40:16;20.60;;;13.25;;
2898;SDS011;1459;50.864;6.438;2022-12-18T09:42:47;23.83;;;15.23;;
2898;SDS011;1459;50.864;6.438;2022-12-18T09:45:20;30.25;;;17.40;;
2898;SDS011;1459;50.864;6.438;2022-12-18T09:47:47;20.10;;;14.75;;
2898;SDS011;1459;50.864;6.438;2022-12-18T09:50:19;27.23;;;17.85;;
2898;SDS011;1459;50.864;6.438;2022-12-18T09:52:52;24.65;;;15.60;;
2898;SDS011;1459;50.864;6.438;2022-12-18T09:55:25;16.80;;;12.18;;
2898;SDS011;1459;50.864;6.438;2022-12-18T09:58:00;19.83;;;13.27;;
2898;SDS011;1459;50.864;6.438;2022-12-18T10:00:32;24.02;;;15.05;;
2898;SDS011;1459;50.864;6.438;2022-12-18T10:02:59;23.23;;;14.65;;
2898;SDS011;1459;50.864;6.438;2022-12-18T10:05:33;26.15;;;15.85;;
2898;SDS011;1459;50.864;6.438;2022-12-18T10:08:05;26.10;;;18.17;;
2898;SDS011;1459;50.864;6.438;2022-12-18T10:10:36;23.20;;;13.75;;
2898;SDS011;1459;50.864;6.438;2022-12-18T10:13:11;22.65;;;14.48;;
2898;SDS011;1459;50.864;6.438;2022-12-18T10:15:48;26.48;;;15.65;;
2898;SDS011;1459;50.864;6.438;2022-12-18T10:18:36;22.58;;;15.50;;
2898;SDS011;1459;50.864;6.438;2022-12-18T10:21:23;22.63;;;16.08;;
2898;SDS011;1459;50.864;6.438;2022-12-18T10:23:58;26.20;;;14.43;;
2898;SDS011;1459;50.864;6.438;2022-12-18T10:26:31;18.80;;;13.00;;
2898;SDS011;1459;50.864;6.438;2022-12-18T10:29:00;26.10;;;16.05;;
2898;SDS011;1459;50.864;6.438;2022-12-18T10:31:30;18.65;;;12.23;;
2898;SDS011;1459;50.864;6.438;2022-12-18T10:33:57;29.27;;;16.88;;
2898;SDS011;1459;50.864;6.438;2022-12-18T10:36:24;21.85;;;14.43;;
2898;SDS011;1459;50.864;6.438;2022-12-18T10:38:51;22.65;;;14.77;;
2898;SDS011;1459;50.864;6.438;2022-12-18T10:41:25;25.05;;;15.88;;
2898;SDS011;1459;50.864;6.438;2022-12-18T10:46:42;18.13;;;11.27;;
2898;SDS011;1459;50.864;6.438;2022-12-18T10:49:18;24.20;;;16.40;;
2898;SDS011;1459;50.864;6.438;2022-12-18T10:51:47;21.55;;;13.95;;
2898;SDS011;1459;50.864;6.438;2022-12-18T10:54:15;22.85;;;15.98;;
2898;SDS011;1459;50.864;6.438;2022-12-18T10:56:45;22.08;;;15.38;;
2898;SDS011;1459;50.864;6.438;2022-12-18T10:59:14;20.83;;;15.07;;
2898;SDS011;1459;50.864;6.438;2022-12-18T11:01:47;24.02;;;14.45;;
2898;SDS011;1459;50.864;6.438;2022-12-18T11:04:16;27.52;;;15.40;;
2898;SDS011;1459;50.864;6.438;2022-12-18T11:06:52;21.60;;;14.77;;
2898;SDS011;1459;50.864;6.438;2022-12-18T11:09:22;25.02;;;16.40;;
2898;SDS011;1459;50.864;6.438;2022-12-18T11:11:51;23.25;;;15.52;;
2898;SDS011;1459;50.864;6.438;2022-12-18T11:14:24;23.88;;;16.70;;
2898;SDS011;1459;50.864;6.438;2022-12-18T11:16:53;22.52;;;15.30;;
2898;SDS011;1459;50.864;6.438;2022-12-18T11:19:24;27.73;;;16.13;;
2898;SDS011;1459;50.864;6.438;2022-12-18T11:21:58;20.33;;;13.82;;
2898;SDS011;1459;50.864;6.438;2022-12-18T11:24:27;26.38;;;16.52;;
2898;SDS011;1459;50.864;6.438;2022-12-18T11:26:57;21.08;;;13.30;;
2898;SDS011;1459;50.864;6.438;2022-12-18T11:29:33;22.25;;;13.52;;
2898;SDS011;1459;50.864;6.438;2022-12-18T11:34:58;20.23;;;14.95;;
2898;SDS011;1459;50.864;6.438;2022-12-18T11:37:36;20.00;;;15.25;;
2898;SDS011;1459;50.864;6.438;2022-12-18T11:40:10;29.80;;;17.30;;
2898;SDS011;1459;50.864;6.438;2022-12-18T11:42:41;26.48;;;15.52;;
2898;SDS011;1459;50.864;6.438;2022-12-18T11:45:20;22.08;;;16.45;;
2898;SDS011;1459;50.864;6.438;2022-12-18T11:47:55;23.23;;;15.95;;
2898;SDS011;1459;50.864;6.438;2022-12-18T11:50:26;26.00;;;14.80;;
2898;SDS011;1459;50.864;6.438;2022-12-18T11:52:58;22.35;;;14.20;;
2898;SDS011;1459;50.864;6.438;2022-12-18T11:55:29;22.15;;;16.05;;
2898;SDS011;1459;50.864;6.438;2022-12-18T11:58:04;21.85;;;15.13;;
2898;SDS011;1459;50.864;6.438;2022-12-18T12:00:40;25.08;;;14.85;;
2898;SDS011;1459;50.864;6.438;2022-12-18T12:03:21;19.70;;;13.27;;
2898;SDS011;1459;50.864;6.438;2022-12-18T12:06:05;22.05;;;15.05;;
2898;SDS011;1459;50.864;6.438;2022-12-18T12:08:44;20.77;;;14.52;;
2898;SDS011;1459;50.864;6.438;2022-12-18T12:11:23;23.85;;;14.82;;
2898;SDS011;1459;50.864;6.438;2022-12-18T12:14:03;25.50;;;15.98;;
2898;SDS011;1459;50.864;6.438;2022-12-18T12:16:46;19.67;;;13.13;;
2898;SDS011;1459;50.864;6.438;2022-12-18T12:19:25;21.42;;;14.07;;
2898;SDS011;1459;50.864;6.438;2022-12-18T12:22:03;25.23;;;16.40;;
2898;SDS011;1459;50.864;6.438;2022-12-18T12:24:43;25.50;;;16.02;;
2898;SDS011;1459;50.864;6.438;2022-12-18T12:27:19;23.58;;;16.10;;
2898;SDS011;1459;50.864;6.438;2022-12-18T12:30:02;23.88;;;16.25;;
2898;SDS011;1459;50.864;6.438;2022-12-18T12:32:37;27.58;;;16.83;;
2898;SDS011;1459;50.864;6.438;2022-12-18T12:35:16;24.17;;;14.80;;
2898;SDS011;1459;50.864;6.438;2022-12-18T12:37:53;22.88;;;15.85;;
2898;SDS011;1459;50.864;6.438;2022-12-18T12:40:31;29.70;;;17.17;;
2898;SDS011;1459;50.864;6.438;2022-12-18T12:43:01;27.10;;;16.85;;
2898;SDS011;1459;50.864;6.438;2022-12-18T12:45:40;26.98;;;17.17;;
2898;SDS011;1459;50.864;6.438;2022-12-18T12:48:15;23.58;;;14.82;;
2898;SDS011;1459;50.864;6.438;2022-12-18T12:50:46;24.98;;;15.50;;
2898;SDS011;1459;50.864;6.438;2022-12-18T12:53:17;21.38;;;14.80;;
2898;SDS011;1459;50.864;6.438;2022-12-18T12:55:51;25.52;;;15.82;;
2898;SDS011;1459;50.864;6.438;2022-12-18T12:58:21;24.85;;;14.60;;
2898;SDS011;1459;50.864;6.438;2022-12-18T13:00:58;27.08;;;17.35;;
2898;SDS011;1459;50.864;6.438;2022-12-18T13:03:39;26.13;;;13.65;;
2898;SDS011;1459;50.864;6.438;2022-12-18T13:06:12;24.77;;;15.15;;
2898;SDS011;1459;50.864;6.438;2022-12-18T13:08:53;24.00;;;16.48;;
2898;SDS011;1459;50.864;6.438;2022-12-18T13:11:29;21.35;;;17.27;;
2898;SDS011;1459;50.864;6.438;2022-12-18T13:14:26;28.02;;;16.00;;
2898;SDS011;1459;50.864;6.438;2022-12-18T13:17:21;22.90;;;15.07;;
2898;SDS011;1459;50.864;6.438;2022-12-18T13:22:43;21.05;;;14.57;;
2898;SDS011;1459;50.864;6.438;2022-12-18T13:25:30;25.75;;;15.85;;
2898;SDS011;1459;50.864;6.438;2022-12-18T13:28:00;23.70;;;14.93;;
2898;SDS011;1459;50.864;6.438;2022-12-18T13:36:27;27.30;;;15.18;;
2898;SDS011;1459;50.864;6.438;2022-12-18T13:41:49;26.30;;;17.40;;
2898;SDS011;1459;50.864;6.438;2022-12-18T13:44:30;22.00;;;15.70;;
2898;SDS011;1459;50.864;6.438;2022-12-18T13:46:58;21.15;;;14.57;;
2898;SDS011;1459;50.864;6.438;2022-12-18T13:49:28;30.88;;;18.27;;
2898;SDS011;1459;50.864;6.438;2022-12-18T13:52:10;22.35;;;16.65;;
2898;SDS011;1459;50.864;6.438;2022-12-18T13:54:42;25.35;;;14.82;;
2898;SDS011;1459;50.864;6.438;2022-12-18T13:57:25;31.27;;;18.23;;
2898;SDS011;1459;50.864;6.438;2022-12-18T13:59:53;22.60;;;16.73;;
2898;SDS011;1459;50.864;6.438;2022-12-18T14:02:22;30.67;;;19.25;;
2898;SDS011;1459;50.864;6.438;2022-12-18T14:04:50;24.70;;;17.27;;
2898;SDS011;1459;50.864;6.438;2022-12-18T14:07:20;26.77;;;16.88;;
2898;SDS011;1459;50.864;6.438;2022-12-18T14:09:49;23.77;;;16.15;;
2898;SDS011;1459;50.864;6.438;2022-12-18T14:12:19;32.83;;;18.52;;
2898;SDS011;1459;50.864;6.438;2022-12-18T14:15:06;26.88;;;13.43;;
2898;SDS011;1459;50.864;6.438;2022-12-18T14:17:48;29.13;;;17.10;;
2898;SDS011;1459;50.864;6.438;2022-12-18T14:20:16;26.25;;;16.90;;
2898;SDS011;1459;50.864;6.438;2022-12-18T14:22:46;20.02;;;14.52;;
2898;SDS011;1459;50.864;6.438;2022-12-18T14:25:16;25.30;;;18.58;;
2898;SDS011;1459;50.864;6.438;2022-12-18T14:27:45;24.10;;;17.17;;
2898;SDS011;1459;50.864;6.438;2022-12-18T14:33:02;28.00;;;17.52;;
2898;SDS011;1459;50.864;6.438;2022-12-18T14:35:31;22.50;;;16.20;;
2898;SDS011;1459;50.864;6.438;2022-12-18T14:38:19;25.55;;;16.05;;
2898;SDS011;1459;50.864;6.438;2022-12-18T14:40:51;25.42;;;17.58;;
2898;SDS011;1459;50.864;6.438;2022-12-18T14:43:19;29.55;;;18.40;;
2898;SDS011;1459;50.864;6.438;2022-12-18T14:45:47;29.35;;;18.17;;
2898;SDS011;1459;50.864;6.438;2022-12-18T14:48:16;27.10;;;18.13;;
2898;SDS011;1459;50.864;6.438;2022-12-18T14:50:45;27.95;;;17.65;;
2898;SDS011;1459;50.864;6.438;2022-12-18T14:53:23;28.50;;;18.55;;
2898;SDS011;1459;50.864;6.438;2022-12-18T14:55:56;28.48;;;15.65;;
2898;SDS011;1459;50.864;6.438;2022-12-18T14:58:24;36.25;;;18.90;;
2898;SDS011;1459;50.864;6.438;2022-12-18T15:00:51;30.80;;;18.70;;
2898;SDS011;1459;50.864;6.438;2022-12-18T15:03:18;33.63;;;19.00;;
2898;SDS011;1459;50.864;6.438;2022-12-18T15:05:49;25.17;;;16.15;;
2898;SDS011;1459;50.864;6.438;2022-12-18T15:08:31;29.70;;;17.73;;
2898;SDS011;1459;50.864;6.438;2022-12-18T15:11:02;33.85;;;20.00;;
2898;SDS011;1459;50.864;6.438;2022-12-18T15:13:29;27.55;;;16.70;;
2898;SDS011;1459;50.864;6.438;2022-12-18T15:15:56;30.15;;;17.45;;
2898;SDS011;1459;50.864;6.438;2022-12-18T15:18:30;34.55;;;18.10;;
2898;SDS011;1459;50.864;6.438;2022-12-18T15:21:07;31.05;;;18.60;;
2898;SDS011;1459;50.864;6.438;2022-12-18T15:23:37;18.90;;;14.65;;
2898;SDS011;1459;50.864;6.438;2022-12-18T15:26:13;29.10;;;18.88;;
2898;SDS011;1459;50.864;6.438;2022-12-18T15:28:43;37.65;;;19.90;;
2898;SDS011;1459;50.864;6.438;2022-12-18T15:31:22;29.17;;;17.02;;